createdAt,value
2018-12-30T03:00:01.173Z,14.30
2018-12-30T06:26:05.754Z,8.20
2018-12-30T07:50:15.361Z,6.90
2018-12-30T07:52:51.610Z,8.00
2018-12-30T08:07:07.137Z,6.22
2018-12-30T08:12:33.952Z,6.05
2018-12-30T08:15:13.536Z,10.30
2018-12-30T08:23:49.233Z,7.08
2018-12-30T08:26:24.657Z,7.67
2018-12-30T08:28:59.767Z,7.53
2018-12-30T08:34:38.687Z,10.03
2018-12-30T08:46:08.048Z,6.53
2018-12-30T08:51:46.602Z,6.50
2018-12-30T09:03:20.784Z,12.88
2018-12-30T09:05:59.060Z,7.00
2018-12-30T09:11:32.718Z,7.90
2018-12-30T09:14:09.623Z,6.40
2018-12-30T09:16:46.128Z,9.70
2018-12-30T09:19:19.250Z,6.92
2018-12-30T09:24:53.143Z,9.53
2018-12-30T09:27:28.755Z,8.68
2018-12-30T09:30:15.250Z,8.38
2018-12-30T09:32:49.744Z,8.53
2018-12-30T09:35:28.458Z,7.97
2018-12-30T09:38:02.896Z,8.28
2018-12-30T09:40:44.642Z,5.60
2018-12-30T09:43:19.268Z,5.55
2018-12-30T09:45:53.414Z,12.95
2018-12-30T09:48:41.191Z,10.20
2018-12-30T09:51:11.125Z,6.42
2018-12-30T09:53:45.116Z,9.33
2018-12-30T09:56:33.544Z,7.17
2018-12-30T09:59:11.039Z,6.97
2018-12-30T10:01:45.570Z,7.67
2018-12-30T10:04:21.233Z,6.40
2018-12-30T10:06:57.057Z,7.97
2018-12-30T10:12:31.154Z,8.28
2018-12-30T10:15:09.591Z,7.28
2018-12-30T10:17:45.381Z,7.45
2018-12-30T10:20:22.203Z,8.68
2018-12-30T10:22:58.843Z,8.73
2018-12-30T10:25:33.850Z,9.80
2018-12-30T10:30:55.591Z,6.30
2018-12-30T10:33:32.613Z,6.72
2018-12-30T10:36:09.786Z,9.00
2018-12-30T10:38:53.302Z,9.05
2018-12-30T10:41:26.859Z,8.60
2018-12-30T10:44:02.165Z,5.47
2018-12-30T10:46:36.729Z,6.70
2018-12-30T10:49:11.663Z,9.10
2018-12-30T10:51:51.237Z,4.33
2018-12-30T10:54:28.653Z,6.47
2018-12-30T10:57:07.440Z,6.78
2018-12-30T10:59:41.890Z,7.78
2018-12-30T11:02:18.896Z,7.90
2018-12-30T11:04:59.531Z,8.08
2018-12-30T11:07:37.328Z,5.80
2018-12-30T15:40:21.625Z,14.75
2018-12-30T15:58:21.599Z,20.23
2018-12-30T16:19:22.517Z,14.05
2018-12-30T16:22:00.323Z,14.78
2018-12-30T16:24:35.491Z,12.25
2018-12-30T16:39:00.534Z,13.22
2018-12-30T16:44:49.835Z,12.03
2018-12-30T16:47:41.955Z,13.78
2018-12-30T16:50:18.973Z,13.25
2018-12-30T16:52:55.931Z,12.85
2018-12-30T16:55:34.871Z,13.83
2018-12-30T16:58:23.867Z,16.00
2018-12-30T17:00:58.927Z,12.63
2018-12-30T17:03:32.469Z,28.60
2018-12-30T17:06:08.405Z,12.88
2018-12-30T17:11:41.132Z,10.08
2018-12-30T17:14:16.525Z,11.40
2018-12-30T17:19:51.928Z,15.13
2018-12-30T17:22:27.698Z,12.30
2018-12-30T17:28:10.359Z,12.37
2018-12-30T17:37:02.134Z,12.90
2018-12-30T17:42:43.504Z,14.68
2018-12-30T17:48:30.648Z,16.45
2018-12-30T18:12:26.725Z,15.55
2018-12-30T18:39:33.352Z,13.65
2018-12-30T18:45:11.049Z,12.65
2018-12-30T18:50:59.595Z,10.30
2018-12-30T18:53:41.916Z,13.53
2018-12-30T18:56:36.020Z,10.75
2018-12-30T18:59:24.516Z,15.15
2018-12-30T19:02:04.160Z,14.53
2018-12-30T19:04:50.893Z,14.15
2018-12-30T19:07:31.301Z,12.33
2018-12-30T19:10:11.216Z,14.83
2018-12-30T19:12:56.042Z,14.63
2018-12-30T19:15:43.071Z,13.83
2018-12-30T19:18:19.761Z,13.22
2018-12-30T19:21:04.018Z,17.75
2018-12-30T19:23:43.754Z,11.12
2018-12-30T19:26:23.520Z,12.95
2018-12-30T19:29:08.197Z,17.57
2018-12-30T19:31:49.004Z,12.73
2018-12-30T19:34:24.038Z,14.25
2018-12-30T19:37:10.534Z,12.20
2018-12-30T19:39:55.090Z,15.35
2018-12-30T19:42:33.914Z,13.68
2018-12-30T19:45:10.970Z,17.27
2018-12-30T19:47:54.529Z,11.20
2018-12-30T19:50:30.711Z,13.70
2018-12-30T19:53:05.581Z,11.18
2018-12-30T19:55:41.532Z,13.48
2018-12-30T19:58:21.234Z,12.45
2018-12-30T20:00:59.987Z,14.43
2018-12-30T20:03:39.321Z,12.25
2018-12-30T20:06:25.417Z,14.07
2018-12-30T20:09:02.778Z,14.75
2018-12-30T20:11:39.221Z,13.55
2018-12-30T20:14:24.784Z,13.43
2018-12-30T20:17:05.506Z,15.23
2018-12-30T20:19:55.300Z,10.88
2018-12-30T20:22:33.526Z,11.70
2018-12-30T20:25:13.595Z,11.55
2018-12-30T20:27:58.994Z,10.10
2018-12-30T20:30:39.008Z,14.20
2018-12-30T20:33:16.608Z,12.37
2018-12-30T20:35:59.102Z,12.90
2018-12-30T20:38:39.184Z,10.60
2018-12-30T20:41:16.405Z,11.38
2018-12-30T20:43:54.862Z,10.90
2018-12-30T20:46:32.738Z,13.75
2018-12-30T20:49:14.365Z,19.62
2018-12-30T20:51:56.169Z,14.50
2018-12-30T20:54:33.163Z,10.48
2018-12-30T20:57:22.144Z,16.45
2018-12-30T21:00:00.931Z,13.70
2018-12-30T21:02:38.388Z,14.40
2018-12-30T21:05:17.285Z,19.00
2018-12-30T21:07:55.623Z,12.75
2018-12-30T21:10:34.213Z,12.10
2018-12-30T21:13:12.190Z,10.93
2018-12-30T21:15:48.417Z,11.15
2018-12-30T21:18:24.610Z,14.38
2018-12-30T21:21:13.390Z,15.35
2018-12-30T21:23:49.381Z,14.75
2018-12-30T21:26:24.493Z,14.50
2018-12-30T21:29:02.867Z,12.40
2018-12-30T21:31:45.847Z,15.28
2018-12-30T21:34:19.395Z,15.48
2018-12-30T21:36:56.083Z,15.58
2018-12-30T21:39:31.379Z,12.82
2018-12-30T21:42:09.843Z,12.73
2018-12-30T21:44:45.649Z,12.95
2018-12-30T21:47:27.858Z,18.48
2018-12-30T21:50:04.118Z,13.72
2018-12-30T21:52:43.565Z,15.60
2018-12-30T21:55:19.389Z,14.45
2018-12-30T21:57:54.624Z,15.50
2018-12-30T22:00:30.651Z,15.63
2018-12-30T22:03:07.970Z,12.37
2018-12-30T22:05:44.179Z,21.52
2018-12-30T22:08:19.896Z,14.10
2018-12-30T22:10:55.245Z,14.05
2018-12-30T22:13:33.738Z,11.03
2018-12-30T22:16:09.416Z,14.00
2018-12-30T22:18:47.836Z,18.95
2018-12-30T22:21:24.025Z,15.08
2018-12-30T22:23:59.807Z,11.15
2018-12-30T22:26:36.007Z,15.98
2018-12-30T22:29:10.790Z,16.87
2018-12-30T22:31:47.853Z,15.75
2018-12-30T22:34:21.523Z,14.60
2018-12-30T22:36:55.033Z,15.32
2018-12-30T22:39:30.566Z,21.65
2018-12-30T22:42:05.884Z,16.80
2018-12-30T22:44:41.281Z,17.25
2018-12-30T22:47:14.291Z,17.42
2018-12-30T22:49:48.442Z,14.47
2018-12-30T22:52:23.393Z,17.48
2018-12-30T22:55:04.372Z,12.00
2018-12-30T22:57:41.672Z,14.80
2018-12-30T23:00:28.694Z,16.75
2018-12-30T23:03:01.541Z,15.13
2018-12-30T23:05:38.946Z,14.07
2018-12-30T23:08:16.540Z,14.33
2018-12-30T23:10:53.877Z,14.70
2018-12-30T23:13:28.684Z,14.33
2018-12-30T23:16:01.646Z,14.40
2018-12-30T23:18:34.910Z,15.55
2018-12-30T23:21:11.052Z,12.68
2018-12-30T23:23:46.198Z,14.05
2018-12-30T23:26:21.342Z,14.15
2018-12-30T23:28:57.024Z,23.18
2018-12-30T23:31:32.534Z,18.92
2018-12-30T23:34:05.858Z,14.18
2018-12-30T23:36:41.456Z,15.90
2018-12-30T23:39:16.645Z,12.37
2018-12-30T23:41:49.575Z,17.55
2018-12-30T23:44:27.276Z,15.43
2018-12-30T23:47:03.321Z,19.32
2018-12-30T23:49:38.567Z,16.87
2018-12-30T23:52:16.053Z,16.90
2018-12-30T23:54:51.084Z,13.80
2018-12-30T23:57:26.718Z,14.35
